Time;durP1;ratioP1;P1;durP2;ratioP2;P2;SDS_P1;SDS_P2;PMS_P1;PMS_P2;Temp;Humidity;BMP_temperature;BMP_pressure;BME280_temperature;BME280_humidity;BME280_pressure;Samples;Min_cycle;Max_cycle;Signal;HPM_P1;HPM_P2
2023/06/14 00:00:42;;;;;;;12.83;6.77;;;12.80;88.90;;;;;;5014883;28;20173;-89
2023/06/14 00:03:11;;;;;;;9.57;6.77;;;12.80;89.00;;;;;;5013291;28;20206;-89
2023/06/14 00:05:40;;;;;;;10.77;6.90;;;12.80;89.10;;;;;;5013585;28;20184;-90
2023/06/14 00:08:07;;;;;;;10.87;6.97;;;12.80;89.20;;;;;;5012612;28;20169;-88
2023/06/14 00:10:35;;;;;;;10.30;7.00;;;12.80;89.30;;;;;;5014781;28;20189;-89
2023/06/14 00:13:01;;;;;;;12.80;7.00;;;12.80;89.30;;;;;;5014327;28;20193;-89
2023/06/14 00:15:27;;;;;;;10.13;6.87;;;12.80;89.30;;;;;;5013153;28;20190;-89
2023/06/14 00:17:54;;;;;;;8.47;6.73;;;12.80;89.30;;;;;;5013195;28;20659;-88
2023/06/14 00:20:20;;;;;;;8.37;6.87;;;12.90;89.30;;;;;;5013220;28;20177;-89
2023/06/14 00:22:46;;;;;;;11.40;7.50;;;12.90;89.10;;;;;;5014159;28;20208;-89
2023/06/14 00:25:11;;;;;;;9.13;7.30;;;13.00;89.10;;;;;;5013218;28;20173;-88
2023/06/14 00:27:37;;;;;;;13.83;7.67;;;13.00;88.90;;;;;;5013034;28;20205;-88
2023/06/14 00:30:12;;;;;;;11.03;7.40;;;13.00;88.80;;;;;;5071497;28;20936;-89
2023/06/14 00:32:37;;;;;;;9.60;7.83;;;12.90;88.70;;;;;;5070541;28;20567;-89
2023/06/14 00:35:03;;;;;;;10.97;7.17;;;12.80;88.70;;;;;;5069487;28;20179;-89
2023/06/14 00:37:29;;;;;;;13.57;7.93;;;12.80;88.80;;;;;;5069360;28;20697;-89
2023/06/14 00:39:54;;;;;;;12.23;7.87;;;12.70;88.90;;;;;;5069077;28;20182;-89
2023/06/14 00:42:26;;;;;;;8.53;7.30;;;12.70;89.10;;;;;;5069012;28;20199;-88
2023/06/14 00:44:52;;;;;;;9.80;7.57;;;12.60;89.40;;;;;;5069557;28;20183;-88
2023/06/14 00:47:18;;;;;;;10.37;7.53;;;12.60;89.60;;;;;;5068879;28;20175;-88
2023/06/14 00:49:46;;;;;;;12.53;7.87;;;12.50;89.80;;;;;;5068826;28;20207;-88
2023/06/14 00:52:12;;;;;;;12.47;7.50;;;12.50;90.10;;;;;;5068714;28;20290;-88
2023/06/14 00:54:38;;;;;;;11.07;6.87;;;12.40;90.30;;;;;;5068719;28;20183;-88
2023/06/14 00:57:04;;;;;;;10.83;7.53;;;12.40;90.60;;;;;;5070000;28;20641;-89
2023/06/14 00:59:30;;;;;;;12.97;7.53;;;12.40;90.70;;;;;;5068658;28;20182;-88
2023/06/14 01:01:55;;;;;;;13.77;7.80;;;12.40;90.90;;;;;;5068571;28;20180;-88
2023/06/14 01:04:21;;;;;;;10.73;7.23;;;12.40;91.00;;;;;;5068612;28;20175;-88
2023/06/14 01:07:16;;;;;;;11.20;7.63;;;12.40;91.10;;;;;;5068608;28;20202;-89
2023/06/14 01:09:55;;;;;;;12.87;7.30;;;12.40;91.20;;;;;;5049948;28;20341;-89
2023/06/14 01:12:30;;;;;;;13.97;7.63;;;12.30;91.30;;;;;;5068443;28;20202;-89
2023/06/14 01:14:59;;;;;;;13.70;8.13;;;12.40;91.40;;;;;;5069972;28;20163;-89
2023/06/14 01:17:26;;;;;;;16.00;7.83;;;12.40;91.40;;;;;;5068373;28;20179;-89
2023/06/14 01:19:57;;;;;;;19.13;8.47;;;12.30;91.40;;;;;;5068390;28;20554;-89
2023/06/14 01:22:27;;;;;;;13.53;7.43;;;12.30;91.50;;;;;;5069059;28;20641;-88
2023/06/14 01:24:55;;;;;;;14.40;7.63;;;12.30;91.60;;;;;;5069384;28;20179;-89
2023/06/14 01:27:23;;;;;;;12.53;7.10;;;12.30;91.60;;;;;;5068318;28;20537;-88
2023/06/14 01:29:56;;;;;;;10.43;7.37;;;12.30;91.60;;;;;;5068396;28;20656;-88
2023/06/14 01:32:23;;;;;;;10.80;7.50;;;12.30;91.60;;;;;;5069130;28;20219;-89
2023/06/14 01:34:48;;;;;;;11.13;7.57;;;12.30;91.70;;;;;;5067878;28;20171;-88
2023/06/14 01:37:14;;;;;;;13.40;7.77;;;12.30;91.80;;;;;;5067852;28;20174;-88
2023/06/14 01:39:43;;;;;;;10.77;7.83;;;12.20;91.90;;;;;;5064965;28;20195;-88
2023/06/14 01:42:11;;;;;;;13.03;7.57;;;12.30;91.90;;;;;;5054525;28;20281;-88
2023/06/14 01:44:37;;;;;;;13.30;7.30;;;12.30;91.90;;;;;;5054622;28;20172;-88
2023/06/14 01:47:03;;;;;;;13.30;8.07;;;12.20;92.00;;;;;;5054565;28;20554;-89
2023/06/14 01:49:28;;;;;;;15.40;7.90;;;12.20;92.10;;;;;;5054399;28;20208;-89
2023/06/14 01:51:54;;;;;;;15.63;8.47;;;12.30;92.10;;;;;;5054920;28;20204;-88
2023/06/14 01:54:19;;;;;;;15.53;8.60;;;12.20;92.10;;;;;;5055492;28;20181;-89
2023/06/14 01:56:45;;;;;;;14.90;8.53;;;12.20;92.10;;;;;;5054319;28;20208;-89
2023/06/14 01:59:10;;;;;;;10.20;7.30;;;12.20;92.20;;;;;;5055221;28;20264;-89
2023/06/14 02:01:36;;;;;;;10.20;7.77;;;12.20;92.10;;;;;;5054165;28;20179;-88
2023/06/14 02:04:02;;;;;;;13.83;8.27;;;12.10;92.20;;;;;;5054603;28;20196;-88
2023/06/14 02:06:28;;;;;;;10.27;7.43;;;12.10;92.20;;;;;;5054127;28;20187;-88
2023/06/14 02:08:53;;;;;;;11.57;7.63;;;12.10;92.20;;;;;;5054067;28;20677;-88
2023/06/14 02:11:19;;;;;;;11.03;7.43;;;12.00;92.20;;;;;;5054126;28;20183;-89
2023/06/14 02:13:45;;;;;;;14.43;8.47;;;12.00;92.20;;;;;;5053880;28;20199;-88
2023/06/14 02:16:10;;;;;;;11.90;8.10;;;12.00;92.30;;;;;;5053923;28;20180;-89
2023/06/14 02:18:36;;;;;;;16.97;8.37;;;11.90;92.30;;;;;;5053826;28;20222;-89
2023/06/14 02:21:02;;;;;;;12.97;7.87;;;11.90;92.40;;;;;;5055148;28;20595;-89
2023/06/14 02:23:27;;;;;;;9.37;7.93;;;11.90;92.60;;;;;;5053772;28;20237;-89
2023/06/14 02:25:53;;;;;;;11.97;8.50;;;11.90;92.70;;;;;;5055310;28;20172;-88
2023/06/14 02:28:18;;;;;;;10.53;8.63;;;11.90;92.80;;;;;;5054225;28;20282;-88
2023/06/14 02:30:44;;;;;;;10.57;8.53;;;12.00;92.80;;;;;;5053683;28;20164;-88
2023/06/14 02:33:12;;;;;;;12.90;8.17;;;11.90;92.90;;;;;;5054846;28;20265;-88
2023/06/14 02:35:38;;;;;;;11.33;8.40;;;11.90;92.90;;;;;;5053588;28;20183;-88
2023/06/14 02:38:03;;;;;;;15.20;8.43;;;11.90;93.00;;;;;;5053585;28;20548;-89
2023/06/14 02:40:29;;;;;;;12.53;8.97;;;11.90;93.00;;;;;;5053549;28;20167;-89
2023/06/14 02:42:54;;;;;;;12.73;9.03;;;11.90;93.00;;;;;;5053407;28;20200;-89
2023/06/14 02:45:20;;;;;;;13.33;9.83;;;11.80;93.10;;;;;;5053478;28;20172;-88
2023/06/14 02:47:46;;;;;;;15.80;9.83;;;11.90;93.20;;;;;;5053321;28;20598;-89
2023/06/14 02:50:12;;;;;;;15.50;10.13;;;11.90;93.30;;;;;;5053358;28;20653;-88
2023/06/14 02:52:38;;;;;;;17.83;11.13;;;11.90;93.30;;;;;;5052307;28;20211;-89
2023/06/14 02:55:04;;;;;;;14.20;9.63;;;11.90;93.30;;;;;;5053326;28;20646;-89
2023/06/14 02:57:30;;;;;;;14.97;10.33;;;11.90;93.40;;;;;;5054051;28;20191;-88
2023/06/14 02:59:55;;;;;;;16.57;11.67;;;11.90;93.40;;;;;;5053479;28;20178;-88
2023/06/14 03:02:21;;;;;;;13.67;10.03;;;11.80;93.40;;;;;;5053000;28;20641;-89
2023/06/14 03:04:47;;;;;;;15.17;10.03;;;11.80;93.30;;;;;;5054278;28;20172;-89
2023/06/14 03:07:13;;;;;;;14.80;10.07;;;11.80;93.40;;;;;;5053011;28;20255;-89
2023/06/14 03:09:39;;;;;;;23.20;11.07;;;11.90;93.40;;;;;;5052972;28;20291;-88
2023/06/14 03:12:09;;;;;;;19.90;10.90;;;12.00;93.40;;;;;;5053473;28;20541;-89
2023/06/14 03:14:35;;;;;;;18.10;10.67;;;12.00;93.40;;;;;;5052979;28;20164;-89
2023/06/14 03:17:01;;;;;;;16.07;11.43;;;12.10;93.20;;;;;;5053168;28;20172;-89
2023/06/14 03:19:27;;;;;;;15.43;10.47;;;12.00;92.90;;;;;;5052900;28;20263;-89
2023/06/14 03:21:53;;;;;;;14.50;11.13;;;12.10;92.70;;;;;;5052854;28;20626;-89
2023/06/14 03:24:19;;;;;;;19.33;10.77;;;12.00;92.50;;;;;;5053755;28;20179;-89
2023/06/14 03:26:45;;;;;;;13.60;10.40;;;12.00;92.40;;;;;;5052661;28;20218;-89
2023/06/14 03:29:11;;;;;;;11.53;10.03;;;12.00;92.30;;;;;;5052400;28;20233;-89
2023/06/14 03:31:39;;;;;;;15.23;11.40;;;11.90;92.40;;;;;;5052844;28;20604;-89
2023/06/14 03:34:05;;;;;;;19.60;10.67;;;11.80;92.30;;;;;;5052334;28;20196;-89
2023/06/14 03:36:30;;;;;;;16.63;10.97;;;11.90;92.40;;;;;;5052398;28;20199;-89
2023/06/14 03:38:56;;;;;;;11.90;10.73;;;11.90;92.40;;;;;;5052341;28;20187;-89
2023/06/14 03:41:21;;;;;;;16.40;10.00;;;12.00;92.40;;;;;;5052655;28;20180;-89
2023/06/14 03:43:47;;;;;;;17.07;10.87;;;12.00;92.40;;;;;;5052231;28;20195;-89
2023/06/14 03:46:12;;;;;;;13.83;10.27;;;12.00;92.40;;;;;;5052262;28;20180;-89
2023/06/14 03:48:38;;;;;;;17.37;11.07;;;12.00;92.40;;;;;;5052281;28;20202;-89
2023/06/14 03:51:04;;;;;;;18.63;11.47;;;12.20;92.50;;;;;;5052212;28;20195;-89
2023/06/14 03:53:30;;;;;;;24.20;11.53;;;12.20;92.60;;;;;;5052434;28;20223;-89
2023/06/14 03:55:57;;;;;;;17.63;11.03;;;12.30;92.70;;;;;;5052532;28;20642;-89
2023/06/14 03:58:22;;;;;;;14.07;10.80;;;12.30;92.70;;;;;;5052860;28;20260;-89
2023/06/14 04:00:48;;;;;;;20.27;12.23;;;12.30;92.70;;;;;;5052068;28;20653;-89
2023/06/14 04:03:15;;;;;;;19.00;11.77;;;12.40;92.80;;;;;;5052988;28;20227;-89
2023/06/14 04:05:42;;;;;;;17.10;10.60;;;12.50;92.90;;;;;;5051963;28;20616;-89
2023/06/14 04:08:09;;;;;;;18.80;12.17;;;12.50;92.90;;;;;;5053131;28;20195;-89
2023/06/14 04:10:34;;;;;;;22.97;11.57;;;12.60;93.00;;;;;;5051952;28;20200;-89
2023/06/14 04:13:00;;;;;;;18.53;11.93;;;12.70;93.00;;;;;;5052253;28;20555;-89
2023/06/14 04:15:28;;;;;;;18.03;12.27;;;12.80;93.10;;;;;;5051939;28;20171;-89
2023/06/14 04:17:57;;;;;;;19.27;12.63;;;12.90;93.20;;;;;;5051853;28;20711;-89
2023/06/14 04:20:24;;;;;;;17.40;11.63;;;13.10;93.20;;;;;;5051793;28;20671;-89
2023/06/14 04:22:50;;;;;;;16.93;12.00;;;13.20;93.30;;;;;;5052973;28;20594;-89
2023/06/14 04:25:16;;;;;;;24.10;12.13;;;13.20;93.30;;;;;;5053001;28;20165;-89
2023/06/14 04:27:42;;;;;;;21.47;12.73;;;13.30;93.30;;;;;;5053001;28;20665;-89
2023/06/14 04:30:08;;;;;;;21.93;11.17;;;13.30;93.30;;;;;;5052843;28;20288;-89
2023/06/14 04:32:38;;;;;;;18.80;11.73;;;13.40;93.30;;;;;;5052957;28;20558;-89
2023/06/14 04:35:05;;;;;;;19.10;10.93;;;13.50;93.30;;;;;;5051680;28;20176;-89
2023/06/14 04:37:30;;;;;;;15.40;11.43;;;13.60;93.30;;;;;;5052677;28;20175;-89
2023/06/14 04:39:56;;;;;;;15.30;12.13;;;13.60;93.20;;;;;;5051996;28;20552;-89
2023/06/14 04:42:24;;;;;;;19.53;12.13;;;13.70;93.20;;;;;;5051434;28;20196;-89
2023/06/14 04:44:51;;;;;;;21.70;12.10;;;13.80;93.20;;;;;;5052339;28;20172;-89
2023/06/14 04:47:17;;;;;;;15.50;11.83;;;13.80;93.10;;;;;;5052865;28;20172;-89
2023/06/14 04:49:42;;;;;;;19.70;12.17;;;14.00;93.10;;;;;;5052643;28;20277;-89
2023/06/14 04:52:10;;;;;;;18.80;12.53;;;14.00;92.90;;;;;;5051470;28;20262;-89
2023/06/14 04:54:37;;;;;;;15.23;11.37;;;14.10;92.90;;;;;;5051662;28;20177;-89
2023/06/14 04:57:03;;;;;;;18.13;11.13;;;14.10;92.80;;;;;;5051480;28;20246;-89
2023/06/14 04:59:33;;;;;;;22.20;11.60;;;14.20;92.70;;;;;;5051703;28;20242;-89
2023/06/14 05:01:59;;;;;;;15.00;10.70;;;14.30;92.50;;;;;;5051654;28;20172;-89
2023/06/14 05:04:26;;;;;;;24.60;11.00;;;14.30;92.30;;;;;;5051404;28;20168;-89
2023/06/14 05:06:54;;;;;;;17.67;10.00;;;14.30;92.10;;;;;;5052673;28;20165;-89
2023/06/14 05:09:20;;;;;;;14.40;10.73;;;14.40;91.90;;;;;;5051324;28;20207;-89
2023/06/14 05:11:47;;;;;;;19.03;10.67;;;14.50;91.70;;;;;;5052656;28;20171;-88
2023/06/14 05:14:13;;;;;;;11.97;9.50;;;14.50;91.40;;;;;;5052459;28;20172;-89
2023/06/14 05:16:39;;;;;;;21.57;10.03;;;14.60;91.10;;;;;;5054527;28;20528;-89
2023/06/14 05:19:05;;;;;;;15.83;9.10;;;14.70;91.00;;;;;;5055126;28;20180;-89
2023/06/14 05:21:31;;;;;;;15.00;8.40;;;14.80;90.80;;;;;;5055275;28;20182;-89
2023/06/14 05:23:57;;;;;;;13.77;9.30;;;14.80;90.50;;;;;;5054879;28;20207;-89
2023/06/14 05:26:28;;;;;;;13.87;9.43;;;15.00;90.30;;;;;;5054927;28;20547;-89
2023/06/14 05:28:56;;;;;;;13.77;9.20;;;15.10;90.20;;;;;;5054693;28;20238;-89
2023/06/14 05:31:25;;;;;;;12.47;8.27;;;15.10;89.60;;;;;;5054881;28;20176;-89
2023/06/14 05:33:52;;;;;;;13.83;7.53;;;15.20;88.90;;;;;;5054642;28;20192;-89
2023/06/14 05:36:18;;;;;;;8.57;7.53;;;15.30;88.70;;;;;;5054771;28;20177;-89
2023/06/14 05:38:43;;;;;;;13.53;8.60;;;15.50;88.30;;;;;;5054982;28;20597;-89
2023/06/14 05:41:09;;;;;;;10.20;7.37;;;15.60;87.50;;;;;;5056140;28;20168;-89
2023/06/14 05:43:34;;;;;;;9.73;7.60;;;15.70;87.40;;;;;;5055327;28;20200;-89
2023/06/14 05:46:00;;;;;;;10.98;6.93;;;15.80;86.80;;;;;;5054533;28;20187;-89
2023/06/14 05:48:25;;;;;;;14.50;7.73;;;16.00;86.50;;;;;;5055919;28;20669;-89
2023/06/14 05:50:51;;;;;;;14.50;7.95;;;16.10;86.00;;;;;;5054824;28;20183;-89
2023/06/14 05:53:16;;;;;;;11.77;7.75;;;16.20;85.40;;;;;;5054762;28;20306;-86
2023/06/14 05:55:42;;;;;;;16.13;8.23;;;16.30;84.90;;;;;;5055038;28;20619;-87
2023/06/14 05:58:08;;;;;;;8.38;6.95;;;16.50;84.70;;;;;;5054420;28;20183;-87
2023/06/14 06:00:33;;;;;;;10.15;6.90;;;16.50;83.20;;;;;;5054333;28;20172;-88
2023/06/14 06:02:59;;;;;;;10.07;6.47;;;16.60;83.00;;;;;;5054261;28;20574;-88
2023/06/14 06:05:24;;;;;;;9.75;6.97;;;16.70;82.50;;;;;;5055398;28;20654;-88
2023/06/14 06:07:51;;;;;;;12.32;7.43;;;16.80;81.90;;;;;;5054327;28;20184;-87
2023/06/14 06:10:17;;;;;;;11.70;8.02;;;16.90;80.40;;;;;;5054060;28;20204;-88
2023/06/14 06:12:43;;;;;;;9.15;8.18;;;16.90;79.70;;;;;;5053895;28;20203;-87
2023/06/14 06:15:11;;;;;;;15.55;7.70;;;17.00;79.70;;;;;;5054106;28;20711;-89
2023/06/14 06:17:37;;;;;;;10.13;9.13;;;17.20;80.20;;;;;;5054247;28;20650;-89
2023/06/14 06:20:05;;;;;;;12.23;9.68;;;17.40;79.40;;;;;;5054183;28;20210;-90
2023/06/14 06:22:31;;;;;;;10.43;9.43;;;17.50;78.10;;;;;;5054061;28;20191;-89
2023/06/14 06:24:56;;;;;;;15.13;9.60;;;17.50;77.20;;;;;;5055372;28;20179;-91
2023/06/14 06:27:22;;;;;;;15.15;9.05;;;17.60;77.00;;;;;;5054949;28;20183;-90
2023/06/14 06:29:48;;;;;;;13.35;8.20;;;17.70;76.60;;;;;;5054765;28;20238;-88
2023/06/14 06:32:14;;;;;;;9.00;8.10;;;17.70;76.10;;;;;;5053689;28;20192;-89
2023/06/14 06:34:40;;;;;;;12.43;7.78;;;17.90;76.60;;;;;;5053639;28;20386;-89
2023/06/14 06:37:06;;;;;;;9.13;7.40;;;17.90;75.90;;;;;;5053667;28;20594;-88
2023/06/14 06:39:31;;;;;;;10.65;7.00;;;18.00;75.40;;;;;;5053628;28;20208;-89
2023/06/14 06:41:57;;;;;;;10.23;7.57;;;18.10;75.30;;;;;;5053466;28;20216;-88
2023/06/14 06:44:22;;;;;;;7.95;6.93;;;18.20;73.90;;;;;;5053622;28;20211;-89
2023/06/14 06:46:48;;;;;;;12.90;6.68;;;18.30;73.50;;;;;;5053528;28;20348;-89
2023/06/14 06:49:14;;;;;;;14.80;7.55;;;18.40;73.40;;;;;;5053263;28;20703;-90
2023/06/14 06:51:42;;;;;;;16.70;7.82;;;18.50;73.00;;;;;;5053654;28;20179;-89
2023/06/14 06:54:08;;;;;;;8.73;7.57;;;18.60;71.80;;;;;;5053544;28;20196;-89
2023/06/14 06:56:35;;;;;;;8.85;7.88;;;18.70;72.20;;;;;;5053261;28;20203;-89
2023/06/14 06:59:00;;;;;;;9.55;8.20;;;18.70;70.60;;;;;;5053207;28;20229;-89
2023/06/14 07:01:28;;;;;;;11.00;8.32;;;18.80;70.60;;;;;;5054310;28;20641;-88
2023/06/14 07:03:54;;;;;;;9.65;7.88;;;18.80;70.30;;;;;;5053045;28;20203;-88
2023/06/14 07:06:20;;;;;;;11.80;8.02;;;19.00;70.10;;;;;;5054339;28;20176;-88
2023/06/14 07:08:48;;;;;;;15.73;8.70;;;19.10;69.80;;;;;;5052932;28;20200;-88
2023/06/14 07:11:13;;;;;;;10.15;9.18;;;19.20;69.60;;;;;;5052986;28;20180;-88
2023/06/14 07:13:39;;;;;;;11.75;9.48;;;19.20;68.00;;;;;;5054031;28;20274;-89
2023/06/14 07:16:05;;;;;;;11.45;10.25;;;19.30;67.00;;;;;;5053119;28;20179;-88
2023/06/14 07:18:31;;;;;;;11.90;10.80;;;19.30;66.70;;;;;;5054350;28;20176;-88
2023/06/14 07:20:57;;;;;;;11.70;10.73;;;19.40;66.60;;;;;;5052575;28;20176;-87
2023/06/14 07:23:23;;;;;;;12.90;11.60;;;19.60;66.70;;;;;;5053888;28;20247;-88
2023/06/14 07:25:48;;;;;;;14.02;12.90;;;19.70;64.90;;;;;;5053431;28;20669;-90
2023/06/14 07:28:14;;;;;;;13.93;12.63;;;19.70;64.60;;;;;;5052718;28;20223;-89
2023/06/14 07:30:40;;;;;;;14.40;12.77;;;19.70;64.80;;;;;;5053858;28;20188;-89
2023/06/14 07:33:05;;;;;;;13.85;12.15;;;19.70;64.90;;;;;;5052515;28;20196;-89
2023/06/14 07:35:31;;;;;;;13.55;12.40;;;19.80;63.40;;;;;;5052534;28;20188;-89
2023/06/14 07:37:56;;;;;;;13.68;12.68;;;19.90;63.70;;;;;;5052010;28;20172;-89
2023/06/14 07:40:22;;;;;;;13.35;12.25;;;20.00;63.90;;;;;;5053696;28;20175;-88
2023/06/14 07:42:50;;;;;;;12.48;11.57;;;20.00;63.20;;;;;;5052421;28;20223;-88
2023/06/14 07:45:15;;;;;;;17.80;12.05;;;20.00;62.30;;;;;;5053158;28;20168;-89
2023/06/14 07:47:41;;;;;;;12.02;11.07;;;20.10;62.90;;;;;;5053472;28;20259;-89
2023/06/14 07:50:07;;;;;;;12.95;11.68;;;20.20;62.30;;;;;;5052152;28;20195;-89
2023/06/14 07:52:32;;;;;;;12.10;11.23;;;20.30;62.10;;;;;;5052026;28;20195;-89
2023/06/14 07:54:58;;;;;;;13.48;12.13;;;20.40;62.00;;;;;;5052202;28;20176;-89
2023/06/14 07:57:24;;;;;;;12.20;11.05;;;20.30;60.00;;;;;;5052442;28;20180;-89
2023/06/14 07:59:50;;;;;;;13.15;11.98;;;20.50;60.90;;;;;;5052047;28;20199;-89
2023/06/14 08:02:15;;;;;;;13.48;11.82;;;20.60;60.80;;;;;;5051953;28;20704;-88
2023/06/14 08:04:42;;;;;;;12.75;11.85;;;20.60;59.60;;;;;;5052839;28;20172;-88
2023/06/14 08:07:07;;;;;;;14.00;12.80;;;20.60;58.10;;;;;;5052043;28;20263;-87
2023/06/14 08:09:33;;;;;;;13.95;12.95;;;20.70;59.40;;;;;;5053117;28;20283;-89
2023/06/14 08:11:58;;;;;;;14.48;13.20;;;20.70;58.40;;;;;;5051903;28;20218;-88
2023/06/14 08:14:24;;;;;;;14.68;13.38;;;20.80;58.60;;;;;;5052794;28;20168;-89
2023/06/14 08:16:49;;;;;;;14.73;13.52;;;20.80;57.50;;;;;;5051937;28;20164;-88
2023/06/14 08:19:16;;;;;;;15.27;13.75;;;20.80;57.00;;;;;;5053174;28;20200;-89
2023/06/14 08:21:43;;;;;;;14.65;13.10;;;20.90;57.00;;;;;;5051933;28;20176;-89
2023/06/14 08:24:12;;;;;;;13.40;12.02;;;21.00;57.00;;;;;;5051721;28;20196;-88
2023/06/14 08:26:38;;;;;;;14.10;13.05;;;21.20;57.40;;;;;;5053076;28;20164;-89
2023/06/14 08:29:03;;;;;;;14.93;13.73;;;21.20;57.30;;;;;;5051856;28;20260;-89
2023/06/14 08:31:29;;;;;;;14.60;13.38;;;21.40;57.50;;;;;;5053298;28;20192;-89
2023/06/14 08:33:54;;;;;;;13.93;12.73;;;21.40;55.40;;;;;;5051574;28;20575;-89
2023/06/14 08:36:20;;;;;;;14.55;13.20;;;21.40;54.60;;;;;;5051672;28;20176;-88
2023/06/14 08:38:45;;;;;;;15.63;13.70;;;21.50;56.50;;;;;;5051727;28;20179;-88
2023/06/14 08:41:13;;;;;;;14.10;12.55;;;21.60;54.90;;;;;;5051992;28;20642;-89
2023/06/14 08:43:39;;;;;;;13.77;12.73;;;21.60;55.00;;;;;;5051632;28;20192;-88
2023/06/14 08:46:08;;;;;;;13.35;12.35;;;21.70;54.10;;;;;;5052739;28;20188;-88
2023/06/14 08:48:34;;;;;;;13.77;12.52;;;21.70;54.20;;;;;;5051798;28;20566;-88
2023/06/14 08:51:03;;;;;;;14.45;12.60;;;21.80;53.20;;;;;;5053780;28;20278;-88
2023/06/14 08:53:33;;;;;;;13.13;11.73;;;21.90;53.80;;;;;;5056741;28;20198;-89
2023/06/14 08:56:04;;;;;;;13.75;12.63;;;22.00;54.90;;;;;;5055857;28;20206;-88
2023/06/14 08:58:31;;;;;;;13.50;12.30;;;22.20;54.80;;;;;;5056952;28;20685;-88
2023/06/14 09:01:03;;;;;;;13.75;12.45;;;22.30;52.30;;;;;;5056936;28;20265;-88
2023/06/14 09:03:32;;;;;;;13.07;11.80;;;22.20;51.40;;;;;;5056856;28;20218;-87
2023/06/14 09:05:58;;;;;;;20.48;12.23;;;22.20;52.90;;;;;;5055708;28;20263;-88
2023/06/14 09:08:25;;;;;;;16.40;12.63;;;22.20;52.50;;;;;;5055716;28;20291;-89
2023/06/14 09:10:51;;;;;;;13.00;12.00;;;22.20;52.50;;;;;;5055630;28;20176;-88
2023/06/14 09:13:17;;;;;;;13.23;12.02;;;22.20;53.80;;;;;;5056323;28;20238;-88
2023/06/14 09:15:43;;;;;;;13.32;12.23;;;22.40;52.90;;;;;;5056345;28;20172;-88
2023/06/14 09:18:09;;;;;;;12.73;11.73;;;22.50;51.30;;;;;;5055137;28;20176;-88
2023/06/14 09:20:35;;;;;;;13.80;12.48;;;22.50;51.00;;;;;;5055144;28;20172;-88
2023/06/14 09:23:01;;;;;;;12.93;11.90;;;22.70;51.80;;;;;;5054941;28;20215;-88
2023/06/14 09:25:27;;;;;;;13.30;12.30;;;22.70;51.20;;;;;;5056136;28;20638;-88
2023/06/14 09:27:53;;;;;;;14.07;12.90;;;22.70;50.10;;;;;;5054696;28;20275;-88
2023/06/14 09:30:20;;;;;;;13.95;12.70;;;22.70;49.00;;;;;;5054858;28;20303;-88
2023/06/14 09:32:46;;;;;;;15.40;12.10;;;22.70;49.70;;;;;;5054813;28;20191;-88
2023/06/14 09:35:11;;;;;;;13.73;12.43;;;22.80;49.80;;;;;;5054740;28;20230;-88
2023/06/14 09:37:40;;;;;;;14.20;12.55;;;22.90;50.90;;;;;;5054739;28;20184;-90
2023/06/14 09:40:07;;;;;;;13.35;12.00;;;23.00;49.80;;;;;;5054666;28;20597;-89
2023/06/14 09:42:35;;;;;;;13.02;12.05;;;23.20;51.70;;;;;;5055004;28;20206;-88
2023/06/14 09:45:02;;;;;;;13.07;12.07;;;23.20;49.20;;;;;;5054760;28;20175;-88
2023/06/14 09:47:28;;;;;;;15.20;11.95;;;23.00;50.70;;;;;;5055358;28;20535;-87
2023/06/14 09:49:55;;;;;;;13.55;12.32;;;22.90;48.70;;;;;;5055130;28;20296;-88
2023/06/14 09:52:22;;;;;;;13.50;12.32;;;22.70;50.60;;;;;;5054730;28;20693;-89
2023/06/14 09:54:52;;;;;;;18.50;16.98;;;22.90;49.60;;;;;;5054539;28;20217;-90
2023/06/14 09:57:21;;;;;;;18.85;17.45;;;22.80;48.50;;;;;;5055681;28;20668;-89
2023/06/14 09:59:48;;;;;;;19.58;17.83;;;22.80;49.40;;;;;;5055509;28;20180;-87
2023/06/14 10:02:29;;;;;;;19.35;17.92;;;23.20;49.20;;;;;;5055013;28;20203;-89
2023/06/14 10:05:11;;;;;;;18.17;16.98;;;23.20;49.40;;;;;;5055725;28;20228;-90
2023/06/14 10:07:50;;;;;;;18.83;17.25;;;23.40;49.50;;;;;;5054918;28;20172;-90
2023/06/14 10:10:15;;;;;;;18.38;16.98;;;23.60;47.70;;;;;;5054977;28;20291;-89
2023/06/14 10:12:41;;;;;;;21.33;19.83;;;23.70;48.00;;;;;;5054138;28;20228;-90
2023/06/14 10:15:12;;;;;;;20.27;18.55;;;23.50;46.60;;;;;;5055408;28;20255;-90
2023/06/14 10:17:52;;;;;;;20.50;18.55;;;23.20;47.50;;;;;;5055382;28;20591;-90
2023/06/14 10:20:37;;;;;;;17.67;16.48;;;23.10;46.40;;;;;;5054061;28;20169;-90
2023/06/14 10:23:23;;;;;;;14.00;11.85;;;23.20;47.00;;;;;;5055251;28;20195;-90
2023/06/14 10:25:57;;;;;;;13.35;12.45;;;23.20;46.20;;;;;;5055241;28;20160;-89
2023/06/14 10:28:24;;;;;;;14.23;12.90;;;23.30;47.10;;;;;;5055091;28;20180;-90
2023/06/14 10:31:05;;;;;;;17.98;12.68;;;23.60;47.00;;;;;;5055052;28;20175;-87
2023/06/14 10:33:31;;;;;;;14.88;12.60;;;23.90;47.80;;;;;;5053658;28;20195;-89
2023/06/14 10:36:22;;;;;;;15.30;12.20;;;24.00;47.40;;;;;;5053793;28;20179;-87
2023/06/14 10:39:18;;;;;;;17.08;13.48;;;23.60;47.60;;;;;;5048744;28;20188;-88
2023/06/14 10:41:53;;;;;;;15.38;12.63;;;23.20;49.30;;;;;;5050413;28;20191;-89
2023/06/14 10:44:21;;;;;;;13.30;12.10;;;23.20;47.30;;;;;;5054812;28;20164;-89
2023/06/14 10:46:48;;;;;;;13.02;11.93;;;23.50;48.10;;;;;;5053510;28;20265;-89
2023/06/14 10:49:20;;;;;;;12.68;11.38;;;23.90;46.30;;;;;;5054552;28;20572;-89
2023/06/14 10:51:50;;;;;;;12.68;11.50;;;24.10;45.10;;;;;;5054570;28;20164;-89
2023/06/14 10:54:16;;;;;;;13.73;12.52;;;23.90;45.10;;;;;;5053400;28;20180;-88
2023/06/14 10:56:52;;;;;;;12.75;11.75;;;23.90;45.70;;;;;;5053602;28;20263;-89
2023/06/14 10:59:19;;;;;;;12.75;11.43;;;24.10;45.70;;;;;;5053300;28;20175;-89
2023/06/14 11:02:06;;;;;;;12.32;11.32;;;24.20;44.70;;;;;;5053146;28;20179;-91
2023/06/14 11:04:52;;;;;;;15.10;11.93;;;23.90;44.10;;;;;;5054444;28;20183;-90
2023/06/14 11:07:52;;;;;;;16.77;13.02;;;24.10;43.90;;;;;;5053208;28;20176;-88
2023/06/14 11:10:21;;;;;;;14.13;12.82;;;24.30;45.00;;;;;;5053560;28;20192;-91
2023/06/14 11:12:48;;;;;;;13.90;12.60;;;24.70;44.70;;;;;;5052122;28;20203;-88
2023/06/14 11:15:14;;;;;;;15.57;12.50;;;24.60;44.40;;;;;;5052949;28;20245;-88
2023/06/14 11:17:49;;;;;;;13.60;12.50;;;24.30;44.20;;;;;;5053168;28;20167;-88
2023/06/14 11:20:15;;;;;;;13.80;12.57;;;23.70;43.90;;;;;;5052991;28;20164;-89
2023/06/14 11:22:44;;;;;;;13.75;12.52;;;24.00;44.40;;;;;;5052879;28;20191;-89
2023/06/14 11:25:11;;;;;;;13.13;12.20;;;24.30;44.00;;;;;;5052756;28;20172;-89
2023/06/14 11:27:37;;;;;;;13.43;12.43;;;24.50;42.10;;;;;;5052972;28;20184;-90
2023/06/14 11:30:03;;;;;;;13.80;12.80;;;24.40;44.10;;;;;;5053428;28;20208;-90
2023/06/14 11:32:35;;;;;;;13.70;12.63;;;24.70;44.20;;;;;;5055238;28;20217;-91
2023/06/14 11:35:01;;;;;;;13.23;12.30;;;24.60;43.40;;;;;;5055947;28;20179;-91
2023/06/14 11:37:29;;;;;;;12.90;11.70;;;24.60;43.90;;;;;;5054987;28;20175;-86
2023/06/14 11:39:59;;;;;;;12.52;11.45;;;24.60;44.30;;;;;;5054985;28;20168;-89
2023/06/14 11:42:27;;;;;;;14.13;13.02;;;24.10;44.80;;;;;;5052456;28;20568;-89
2023/06/14 11:44:53;;;;;;;15.07;12.68;;;23.70;47.40;;;;;;5052495;28;20230;-89
2023/06/14 11:47:19;;;;;;;12.95;11.88;;;24.00;46.30;;;;;;5052559;28;20613;-90
2023/06/14 11:49:45;;;;;;;15.93;12.10;;;24.40;48.00;;;;;;5054392;28;20220;-92
2023/06/14 11:52:11;;;;;;;13.32;12.30;;;24.70;42.90;;;;;;5055926;28;20196;-92
2023/06/14 11:54:37;;;;;;;13.40;11.68;;;24.70;44.20;;;;;;5056148;28;20215;-90
2023/06/14 11:57:03;;;;;;;12.35;11.25;;;24.70;43.30;;;;;;5058356;28;20222;-91
2023/06/14 11:59:31;;;;;;;13.02;12.00;;;24.20;46.20;;;;;;5053834;28;20187;-88
2023/06/14 12:01:56;;;;;;;13.25;12.35;;;23.70;46.00;;;;;;5052238;28;20176;-89
2023/06/14 12:04:27;;;;;;;13.32;12.05;;;23.40;47.00;;;;;;5052382;28;20571;-90
2023/06/14 12:06:55;;;;;;;13.70;12.48;;;23.70;46.10;;;;;;5055417;28;20183;-90
2023/06/14 12:09:23;;;;;;;13.30;12.38;;;24.20;45.80;;;;;;5053314;28;20330;-88
2023/06/14 12:11:49;;;;;;;16.63;13.25;;;24.50;44.20;;;;;;5052146;28;20172;-89
2023/06/14 12:14:16;;;;;;;13.20;12.10;;;24.70;43.30;;;;;;5052082;28;20176;-88
2023/06/14 12:16:42;;;;;;;14.13;12.90;;;25.00;44.40;;;;;;5051972;28;20168;-89
2023/06/14 12:19:10;;;;;;;13.60;12.38;;;25.20;42.50;;;;;;5052032;28;20172;-87
2023/06/14 12:21:38;;;;;;;21.35;13.52;;;25.20;41.60;;;;;;5052017;28;20175;-88
2023/06/14 12:24:06;;;;;;;14.20;12.93;;;25.30;43.40;;;;;;5052932;28;20184;-89
2023/06/14 12:26:32;;;;;;;13.48;12.32;;;25.30;42.30;;;;;;5051863;28;20180;-89
2023/06/14 12:28:58;;;;;;;14.45;12.48;;;25.10;42.30;;;;;;5051535;28;20208;-88
2023/06/14 12:31:24;;;;;;;14.77;13.30;;;24.70;43.30;;;;;;5051774;28;20263;-88